Alvord, TX

7:17 AM CDT on August 02, 2015 (GMT -0500)
2 Miles South of Alvord | | Change Station
CLOSE
Current Station
Personal Weather Station
Location: Alvord, TX
Elevation: 853 ft
Nearby Weather Stations

Elev 853 ft 33.33 °N, 97.70 °W | Updated 7 minutes ago

Overcast
Overcast
76.3 °F
Feels Like 77 °F
N
0.0
Wind Variable Wind from WNW

Today
High -- | Low -- °F
--% Chance of Precip.
Yesterday
High -- | Low -- °F
Precip. -- in
6:44 AM 8:29 PM
Waning Gibbous, 94% visible
Pressure 29.97 in
Visibility 10.0 miles
Clouds Mostly Cloudy 9500 ft
Heat Index 77 °F
Dew Point 70 °F
Humidity 80%
Rainfall 0.00 in
Snow Depth Not available.
UV 0 out of 12
Pollen 4.60 out of 12
Air Quality Not available.
Flu Activity Not available.
METAR KLUD 021155Z AUTO 15004KT 10SM BKN095 26/15 A2997 RMK AO2 T02590145 10271 20252

More Conditions Fewer Conditions

Pressure 29.97 in
Visibility 10.0 miles
Clouds Mostly Cloudy 9500 ft
Heat Index 77 °F
Dew Point 70 °F
Humidity 80%
Rainfall 0.00 in
Snow Depth Not available.
UV 0 out of 12
Pollen 4.60 out of 12
Air Quality Not available.
Flu Activity Not available.
METAR KLUD 021155Z AUTO 15004KT 10SM BKN095 26/15 A2997 RMK AO2 T02590145 10271 20252

More Conditions Fewer Conditions

Nowcast | as of 5:58 am CDT on August 2, 2015

Widely scattered light showers or sprinkles will occur along and west of a Bridgeport...to Mineral Wells...to Hamilton line through mid morning. Only a few hundredths to a trace of rainfall will occur with this activity. Otherwise...warm conditions will prevail with light east or southeast winds 5 to 10 mph. Skies will range from mostly cloudy west...to mostly clear east.

×

10-Day Weather Forecast

×

Almanac

Astronomy

Aug. 02, 2015 Rise Set
Actual Time
Civil Twilight
Nautical Twilight
Astronomical Twilight
Moon
Length of Visible Light
Length of Day
Tomorrow will be .
, % of the Moon is Illuminated

Today's Extremes

State Highs State Lows

Community

WunderPhotos

Upload Photos

1,843,233 photos uploaded!

WunderBlogs® & News

Nearby

Air Quality

  Air Quality AQ Index Pollutant
Not available.

Snow Depth

Station Depth Elevation

Earthquake Activity

City Distance Mag. Time & Date
Minimum magnitude displayed is 2.5.

Coastal Water Temperatures

Place Temperature

Stations

Nearby Weather Stations

Station Location Temp. Windchill Dew Point Humidity Wind Precip. Elev Updated Type